Sleepy Hollow, Illinois
Current Conditions -  °F | °C
As of 2:52 AM on Sunday 26 Oct 2014 (Local Time) from KDPA Reporting Station
Clear Clear  
Wind Chill: 43°   Ceiling: Unl
Heat Index: 48°   Visibility: 10mi
Dew Point: 29°   Wind: 10mph
Humidity: 48%   Direction: 320°NW
Pressure: 30"   Gusts: NA
Location:  42.1081°N, 88.3234°W
Report Text: KDPA 260752Z 32009KT 10SM CLR 09/M02 A3000 RMK AO2 SLP159 T00891017
Loading
Personal Weather Stations






























Interactive Weather Map
Tropical Storm Tracking
New forecast layout! Learn more

10-Day Weather Forecast

Advertisements
Track Severe Weather on mobile